Aérodrome :
LOGIN :

S'inscrire | Disclaimer

   EN    FR    IT 

 










Légende :    VFR   VFR Marginal   IFR   IFR Intensif   IFR Très Intensif
Visi : 
Plafond : 
>= 8 km
>= 3000ft
5 à 8 km
1000 à 3000 ft
1500m à 5 km
500 à 1000 ft
800 à 1500m
200 à 500 ft
< 800m
< 200 ft
Symboles :   Orages  Brouillard  Fortes neiges  Fortes précipitations  Vent > 20 kt
SIGMETs :   Divers  Orages  Givrage  Turbulence  Onde Orograph.  Cendres Volcan.







- Altitude de l'aérodrome : 1036 ft
- Code IATA : ERF


EDDE - Erfurt

DERNIER METAR :
  • 220550Z 23012KT 200V260 9999 -RA FEW012 BKN016 09/08 Q1005 TEMPO 23015G25KT

METARs EXPIRÉS :
  • 220520Z 23013KT 9999 -RADZ FEW006 BKN014 09/08 Q1006 BECMG 23015G25KT BKN020
  • 220450Z 23012KT 9999 -DZ FEW006 BKN014 09/08 Q1006 BECMG 23015G25KT BKN020
  • 220420Z 23014KT 9999 BKN018 09/08 Q1006
  • 220350Z 23015KT 9999 SCT018 BKN060 09/07 Q1007
  • 220320Z 23017KT 9999 BKN019 09/07 Q1007

TAF TAF EDDE
Valide du 22 à 06h jusqu'au 23 à 06h UTC


220500Z 2206/2306 23015G25KT 9999 BKN014
BECMG 2206/2208 24020G30KT BKN020
TEMPO 2208/2218 25025G35KT BKN014
TEMPO 2218/2306 RA BKN014
BECMG 2303/2306 25015G25KT
Pas de NOTAMs connus pour ce terrain.



MET'MAP, la Météo Aéronautique d'un coup d'oeil ! - Copyright ORBIFLY Décembre 2007 - Disclaimer

ORBIFLY MET'MAP TEAM :

Programmation & Développement : Alexandra Zaïnal
Conception & Développement : Baudouin d'Aumeries
Co-Programmation & Développement : Marc-Olivier Méhu
Soutien technique & logistique : Manuel Goepfert

Contact : metmap@orbifly.com




SOURCES & CREDITS :

   NOAA